Time;durP1;ratioP1;P1;durP2;ratioP2;P2;SDS_P1;SDS_P2;PMS_P1;PMS_P2;Temp;Humidity;BMP_temperature;BMP_pressure;BME280_temperature;BME280_humidity;BME280_pressure;Samples;Min_cycle;Max_cycle;Signal;HPM_P1;HPM_P2
2023/09/14 00:02:01;;;;;;;;;;;15.20;99.90;;;;;;7331850;19;111261;-71
2023/09/14 00:04:29;;;;;;;;;;;15.20;99.90;;;;;;7339824;19;109312;-70
2023/09/14 00:06:56;;;;;;;;;;;15.20;99.90;;;;;;7330324;19;110642;-70
2023/09/14 00:09:23;;;;;;;;;;;15.10;99.90;;;;;;7330891;19;108838;-70
2023/09/14 00:11:50;;;;;;;;;;;15.10;99.90;;;;;;7331154;19;109091;-70
2023/09/14 00:14:17;;;;;;;;;;;15.10;99.90;;;;;;7336679;19;109461;-70
2023/09/14 00:16:46;;;;;;;;;;;15.10;99.90;;;;;;7332009;19;109187;-70
2023/09/14 00:19:14;;;;;;;;;;;15.10;99.90;;;;;;7334168;19;110947;-71
2023/09/14 00:21:42;;;;;;;;;;;15.10;99.90;;;;;;7330952;19;110664;-71
2023/09/14 00:24:09;;;;;;;;;;;15.10;99.90;;;;;;7334575;19;109319;-70
2023/09/14 00:26:36;;;;;;;;;;;15.10;99.90;;;;;;7332496;19;109977;-71
2023/09/14 00:29:03;;;;;;;;;;;15.10;99.90;;;;;;7328626;19;109565;-71
2023/09/14 00:31:30;;;;;;;;;;;15.10;99.90;;;;;;7334642;19;109505;-71
2023/09/14 00:33:58;;;;;;;;;;;15.10;99.90;;;;;;7329254;19;109409;-70
2023/09/14 00:36:25;;;;;;;;;;;15.10;99.90;;;;;;7334036;19;109629;-71
2023/09/14 00:38:52;;;;;;;;;;;15.00;99.90;;;;;;7334279;19;109413;-70
2023/09/14 00:41:20;;;;;;;;;;;15.00;99.90;;;;;;7331123;19;110453;-70
2023/09/14 00:43:47;;;;;;;;;;;15.00;99.90;;;;;;7333992;19;110336;-70
2023/09/14 00:46:14;;;;;;;;;;;14.90;99.90;;;;;;7329589;19;108913;-70
2023/09/14 00:48:42;;;;;;;;;;;14.90;99.90;;;;;;7338393;19;109499;-70
2023/09/14 00:51:11;;;;;;;;;;;14.80;99.90;;;;;;7333992;19;109424;-70
2023/09/14 00:53:38;;;;;;;;;;;14.80;99.90;;;;;;7329817;19;110075;-71
2023/09/14 00:56:06;;;;;;;;;;;14.70;99.90;;;;;;7331400;19;109001;-70
2023/09/14 00:58:33;;;;;;;;;;;14.60;99.90;;;;;;7331350;19;110333;-70
2023/09/14 01:01:00;;;;;;;;;;;14.60;99.90;;;;;;7325242;19;110506;-70
2023/09/14 01:03:28;;;;;;;;;;;14.60;99.90;;;;;;7331374;19;109358;-70
2023/09/14 01:05:55;;;;;;;;;;;14.60;99.90;;;;;;7330242;19;110562;-70
2023/09/14 01:08:22;;;;;;;;;;;14.60;99.90;;;;;;7331567;19;109992;-71
2023/09/14 01:10:50;;;;;;;;;;;14.60;99.90;;;;;;7337618;19;109157;-71
2023/09/14 01:13:25;;;;;;;;;;;14.60;99.90;;;;;;7331836;19;110168;-70
2023/09/14 01:15:54;;;;;;;;;;;14.60;99.90;;;;;;7330223;19;109123;-70
2023/09/14 01:18:21;;;;;;;;;;;14.60;99.90;;;;;;7333435;19;113152;-70
2023/09/14 01:21:07;;;;;;;;;;;14.40;99.90;;;;;;7333417;19;109800;-70
2023/09/14 01:23:47;;;;;;;;;;;14.40;99.90;;;;;;7335243;19;108762;-70
2023/09/14 01:26:15;;;;;;;;;;;14.40;99.90;;;;;;7333552;19;109012;-70
2023/09/14 01:28:42;;;;;;;;;;;14.40;99.90;;;;;;7330710;19;109626;-70
2023/09/14 01:31:10;;;;;;;;;;;14.30;99.90;;;;;;7337336;19;109480;-71
2023/09/14 01:33:37;;;;;;;;;;;14.20;99.90;;;;;;7328300;19;110592;-69
2023/09/14 01:36:14;;;;;;;;;;;14.30;99.90;;;;;;7334891;19;108795;-70
2023/09/14 01:38:42;;;;;;;;;;;14.20;99.90;;;;;;7330867;19;110477;-70
2023/09/14 01:41:09;;;;;;;;;;;14.20;99.90;;;;;;7326312;19;109130;-69
2023/09/14 01:43:38;;;;;;;;;;;14.10;99.90;;;;;;7333358;19;109382;-69
2023/09/14 01:46:05;;;;;;;;;;;14.10;99.90;;;;;;7331073;19;109506;-70
2023/09/14 01:48:32;;;;;;;;;;;14.10;99.90;;;;;;7327611;19;110125;-70
2023/09/14 01:50:59;;;;;;;;;;;14.10;99.90;;;;;;7332890;19;108805;-70
2023/09/14 01:53:27;;;;;;;;;;;14.10;99.90;;;;;;7333215;19;109983;-70
2023/09/14 01:55:54;;;;;;;;;;;14.10;99.90;;;;;;7332722;19;109028;-70
2023/09/14 01:58:21;;;;;;;;;;;14.00;99.90;;;;;;7329819;19;108673;-70
2023/09/14 02:00:48;;;;;;;;;;;13.90;99.90;;;;;;7332158;19;109362;-70
2023/09/14 02:03:16;;;;;;;;;;;13.90;99.90;;;;;;7332168;19;108411;-69
2023/09/14 02:05:43;;;;;;;;;;;13.90;99.90;;;;;;7323835;19;109315;-71
2023/09/14 02:08:10;;;;;;;;;;;13.90;99.90;;;;;;7333934;19;110981;-70
2023/09/14 02:10:37;;;;;;;;;;;13.90;99.90;;;;;;7333126;19;108810;-69
2023/09/14 02:13:04;;;;;;;;;;;13.90;99.90;;;;;;7337853;19;111778;-69
2023/09/14 02:15:32;;;;;;;;;;;13.90;99.90;;;;;;7345619;19;109785;-72
2023/09/14 02:17:59;;;;;;;;;;;13.80;99.90;;;;;;7338422;19;108569;-70
2023/09/14 02:20:26;;;;;;;;;;;13.80;99.90;;;;;;7340485;19;109136;-70
2023/09/14 02:22:53;;;;;;;;;;;13.70;99.90;;;;;;7332176;19;114506;-70
2023/09/14 02:25:21;;;;;;;;;;;13.70;99.90;;;;;;7338041;19;110601;-70
2023/09/14 02:27:48;;;;;;;;;;;13.70;99.90;;;;;;7337996;19;109882;-70
2023/09/14 02:30:15;;;;;;;;;;;13.70;99.90;;;;;;7335493;19;109943;-70
2023/09/14 02:32:42;;;;;;;;;;;13.80;99.90;;;;;;7338637;19;109441;-70
2023/09/14 02:35:09;;;;;;;;;;;13.70;99.90;;;;;;7336089;19;110000;-71
2023/09/14 02:37:37;;;;;;;;;;;13.80;99.90;;;;;;7345566;19;109187;-71
2023/09/14 02:40:07;;;;;;;;;;;13.80;99.90;;;;;;7337737;19;110228;-70
2023/09/14 02:42:37;;;;;;;;;;;13.80;99.90;;;;;;7342112;19;108340;-70
2023/09/14 02:45:06;;;;;;;;;;;13.80;99.90;;;;;;7337062;19;112659;-70
2023/09/14 02:47:34;;;;;;;;;;;13.70;99.90;;;;;;7339220;19;108970;-70
2023/09/14 02:50:01;;;;;;;;;;;13.60;99.90;;;;;;7339837;19;109500;-70
2023/09/14 02:52:28;;;;;;;;;;;13.70;99.90;;;;;;7337587;19;109443;-72
2023/09/14 02:54:56;;;;;;;;;;;13.70;99.90;;;;;;7338411;19;109941;-70
2023/09/14 02:57:23;;;;;;;;;;;13.70;99.90;;;;;;7339075;19;108948;-71
2023/09/14 02:59:54;;;;;;;;;;;13.70;99.90;;;;;;7345475;19;108916;-70
2023/09/14 03:02:22;;;;;;;;;;;13.70;99.90;;;;;;7335464;19;113413;-71
2023/09/14 03:04:49;;;;;;;;;;;13.70;99.90;;;;;;7337969;19;108765;-69
2023/09/14 03:07:16;;;;;;;;;;;13.70;99.90;;;;;;7338351;19;112635;-70
2023/09/14 03:09:44;;;;;;;;;;;13.70;99.90;;;;;;7334734;19;109236;-70
2023/09/14 03:12:11;;;;;;;;;;;13.70;99.90;;;;;;7334944;19;109912;-71
2023/09/14 03:14:38;;;;;;;;;;;13.70;99.90;;;;;;7338414;19;109303;-70
2023/09/14 03:17:05;;;;;;;;;;;13.70;99.90;;;;;;7334996;19;110330;-77
2023/09/14 03:19:32;;;;;;;;;;;13.70;99.90;;;;;;7343635;19;110044;-76
2023/09/14 03:22:00;;;;;;;;;;;13.60;99.90;;;;;;7338134;19;110040;-73
2023/09/14 03:24:27;;;;;;;;;;;13.60;99.90;;;;;;7335068;19;109332;-76
2023/09/14 03:26:54;;;;;;;;;;;13.60;99.90;;;;;;7338893;19;111015;-70
2023/09/14 03:29:21;;;;;;;;;;;13.60;99.90;;;;;;7333390;19;112116;-78
2023/09/14 03:31:50;;;;;;;;;;;13.60;99.90;;;;;;7336642;19;108343;-75
2023/09/14 03:34:21;;;;;;;;;;;13.50;99.90;;;;;;7335199;19;110717;-71
2023/09/14 03:36:49;;;;;;;;;;;13.50;99.90;;;;;;7337351;19;108778;-75
2023/09/14 03:39:16;;;;;;;;;;;13.40;99.90;;;;;;7333889;19;109610;-75
2023/09/14 03:41:44;;;;;;;;;;;13.40;99.90;;;;;;7338351;19;110424;-76
2023/09/14 03:44:11;;;;;;;;;;;13.40;99.90;;;;;;7336220;19;109001;-71
2023/09/14 03:46:39;;;;;;;;;;;13.40;99.90;;;;;;7336290;19;109185;-76
2023/09/14 03:49:07;;;;;;;;;;;13.40;99.90;;;;;;7336231;19;108783;-72
2023/09/14 03:51:35;;;;;;;;;;;13.40;99.90;;;;;;7335656;19;109156;-77
2023/09/14 03:54:02;;;;;;;;;;;13.40;99.90;;;;;;7335332;19;109826;-75
2023/09/14 03:56:29;;;;;;;;;;;13.40;99.90;;;;;;7332644;19;110313;-71
2023/09/14 03:58:56;;;;;;;;;;;13.40;99.90;;;;;;7336425;19;108400;-74
2023/09/14 04:01:24;;;;;;;;;;;13.40;99.90;;;;;;7335344;19;109935;-76
2023/09/14 04:03:51;;;;;;;;;;;13.40;99.90;;;;;;7341642;19;110284;-74
2023/09/14 04:06:21;;;;;;;;;;;13.40;99.90;;;;;;7333049;19;110712;-73
2023/09/14 04:08:48;;;;;;;;;;;13.40;99.90;;;;;;7336646;19;108941;-78
2023/09/14 04:11:16;;;;;;;;;;;13.40;99.90;;;;;;7337704;19;109384;-74
2023/09/14 04:13:43;;;;;;;;;;;13.40;99.90;;;;;;7333664;19;109155;-72
2023/09/14 04:16:13;;;;;;;;;;;13.30;99.90;;;;;;7333279;19;109088;-75
2023/09/14 04:18:41;;;;;;;;;;;13.30;99.90;;;;;;7332832;19;108871;-70
2023/09/14 04:21:08;;;;;;;;;;;13.30;99.90;;;;;;7333630;19;110045;-71
2023/09/14 04:23:35;;;;;;;;;;;13.20;99.90;;;;;;7333777;19;109070;-71
2023/09/14 04:26:03;;;;;;;;;;;13.20;99.90;;;;;;7335409;19;109540;-71
2023/09/14 04:28:30;;;;;;;;;;;13.20;99.90;;;;;;7333786;19;108767;-74
2023/09/14 04:31:01;;;;;;;;;;;13.20;99.90;;;;;;7332071;19;109205;-71
2023/09/14 04:33:32;;;;;;;;;;;13.30;99.90;;;;;;7334249;19;110190;-71
2023/09/14 04:36:01;;;;;;;;;;;13.30;99.90;;;;;;7333083;19;108486;-70
2023/09/14 04:38:28;;;;;;;;;;;13.30;99.90;;;;;;7335496;19;108969;-70
2023/09/14 04:40:55;;;;;;;;;;;13.30;99.90;;;;;;7331428;19;109778;-70
2023/09/14 04:43:24;;;;;;;;;;;13.30;99.90;;;;;;7333205;19;108799;-70
2023/09/14 04:45:51;;;;;;;;;;;13.30;99.90;;;;;;7332411;19;108963;-70
2023/09/14 04:48:18;;;;;;;;;;;13.30;99.90;;;;;;7340056;19;110925;-76
2023/09/14 04:50:45;;;;;;;;;;;13.30;99.90;;;;;;7329748;19;110580;-76
2023/09/14 04:53:12;;;;;;;;;;;13.30;99.90;;;;;;7333136;19;109112;-74
2023/09/14 04:55:40;;;;;;;;;;;13.40;99.90;;;;;;7330116;19;109287;-73
2023/09/14 04:58:07;;;;;;;;;;;13.40;99.90;;;;;;7333269;19;109296;-72
2023/09/14 05:00:36;;;;;;;;;;;13.40;99.90;;;;;;7335498;19;109103;-71
2023/09/14 05:03:05;;;;;;;;;;;13.40;99.90;;;;;;7333750;19;108786;-71
2023/09/14 05:05:32;;;;;;;;;;;13.40;99.90;;;;;;7334124;19;109403;-68
2023/09/14 05:07:59;;;;;;;;;;;13.40;99.90;;;;;;7333102;19;109944;-70
2023/09/14 05:10:26;;;;;;;;;;;13.50;99.90;;;;;;7338001;19;108964;-65
2023/09/14 05:12:53;;;;;;;;;;;13.50;99.90;;;;;;7335447;19;109735;-65
2023/09/14 05:15:21;;;;;;;;;;;13.60;99.90;;;;;;7336063;19;108537;-67
2023/09/14 05:17:48;;;;;;;;;;;13.60;99.90;;;;;;7331585;19;109931;-65
2023/09/14 05:20:16;;;;;;;;;;;13.50;99.90;;;;;;7331039;19;109876;-65
2023/09/14 05:22:43;;;;;;;;;;;13.40;99.90;;;;;;7332758;19;109327;-65
2023/09/14 05:25:10;;;;;;;;;;;13.40;99.90;;;;;;7337297;19;109241;-65
2023/09/14 05:27:38;;;;;;;;;;;13.40;99.90;;;;;;7335175;19;109106;-65
2023/09/14 05:30:06;;;;;;;;;;;13.50;99.90;;;;;;7341358;19;108873;-65
2023/09/14 05:32:33;;;;;;;;;;;13.50;99.90;;;;;;7337043;19;109007;-65
2023/09/14 05:35:00;;;;;;;;;;;13.50;99.90;;;;;;7332870;19;109424;-65
2023/09/14 05:37:28;;;;;;;;;;;13.50;99.90;;;;;;7332292;19;109100;-65
2023/09/14 05:39:55;;;;;;;;;;;13.50;99.90;;;;;;7332802;19;109775;-65
2023/09/14 05:42:23;;;;;;;;;;;13.50;99.90;;;;;;7330268;19;108750;-69
2023/09/14 05:44:50;;;;;;;;;;;13.50;99.90;;;;;;7331957;19;108710;-65
2023/09/14 05:47:17;;;;;;;;;;;13.60;99.90;;;;;;7331470;19;110578;-66
2023/09/14 05:49:45;;;;;;;;;;;13.70;99.90;;;;;;7331378;19;108553;-66
2023/09/14 05:52:12;;;;;;;;;;;13.70;99.90;;;;;;7336018;19;108656;-66
2023/09/14 05:54:39;;;;;;;;;;;13.80;99.90;;;;;;7330143;19;108511;-64
2023/09/14 05:57:07;;;;;;;;;;;13.80;99.90;;;;;;7332013;19;110944;-64
2023/09/14 05:59:35;;;;;;;;;;;13.80;99.90;;;;;;7330136;19;109806;-64
2023/09/14 06:02:05;;;;;;;;;;;13.80;99.90;;;;;;7330721;19;108514;-65
2023/09/14 06:04:32;;;;;;;;;;;13.80;99.90;;;;;;7331402;19;108605;-65
2023/09/14 06:07:00;;;;;;;;;;;13.70;99.90;;;;;;7329873;19;109617;-65
2023/09/14 06:09:27;;;;;;;;;;;13.70;99.90;;;;;;7330642;19;109265;-65
2023/09/14 06:11:54;;;;;;;;;;;13.70;99.90;;;;;;7333328;19;109503;-65
2023/09/14 06:14:21;;;;;;;;;;;13.70;99.90;;;;;;7337424;19;110038;-64
2023/09/14 06:16:49;;;;;;;;;;;13.80;99.90;;;;;;7332656;19;109114;-64
2023/09/14 06:19:16;;;;;;;;;;;13.80;99.90;;;;;;7328600;19;109121;-64
2023/09/14 06:21:43;;;;;;;;;;;13.90;99.90;;;;;;7332930;19;109706;-64
2023/09/14 06:24:10;;;;;;;;;;;14.00;99.90;;;;;;6962880;19;7301365;-87
2023/09/14 06:26:38;;;;;;;;;;;14.00;99.90;;;;;;7332681;19;111006;-63
2023/09/14 06:29:05;;;;;;;;;;;14.10;99.90;;;;;;7332299;19;109243;-64
2023/09/14 06:31:32;;;;;;;;;;;14.10;99.90;;;;;;7331479;19;109069;-64
2023/09/14 06:33:59;;;;;;;;;;;14.20;99.90;;;;;;7328434;19;110412;-64
2023/09/14 06:36:26;;;;;;;;;;;14.30;99.90;;;;;;7337210;19;109212;-65
2023/09/14 06:38:53;;;;;;;;;;;14.40;99.90;;;;;;7330497;19;108548;-64
2023/09/14 06:41:21;;;;;;;;;;;14.50;99.90;;;;;;7334143;19;110471;-65
2023/09/14 06:43:48;;;;;;;;;;;14.50;99.90;;;;;;7330999;19;109145;-64
2023/09/14 06:46:16;;;;;;;;;;;14.60;99.90;;;;;;7332263;19;109210;-64
2023/09/14 06:48:43;;;;;;;;;;;14.70;99.90;;;;;;7330555;19;110195;-64
2023/09/14 06:51:10;;;;;;;;;;;14.80;99.90;;;;;;7332363;19;109486;-65
2023/09/14 06:53:38;;;;;;;;;;;14.90;99.90;;;;;;7327657;19;110054;-64
2023/09/14 06:56:06;;;;;;;;;;;15.00;99.90;;;;;;7333437;19;109071;-64
2023/09/14 06:58:34;;;;;;;;;;;15.20;99.90;;;;;;7340573;19;109192;-64
2023/09/14 07:01:04;;;;;;;;;;;15.20;99.90;;;;;;7339739;19;109061;-65
2023/09/14 07:03:32;;;;;;;;;;;15.40;99.90;;;;;;7339224;19;109823;-64
2023/09/14 07:06:01;;;;;;;;;;;15.50;99.90;;;;;;7335326;19;108971;-65
2023/09/14 07:08:28;;;;;;;;;;;15.70;99.90;;;;;;7337620;19;108982;-65
2023/09/14 07:10:55;;;;;;;;;;;15.90;99.90;;;;;;7336050;19;110128;-64
2023/09/14 07:13:23;;;;;;;;;;;16.00;99.90;;;;;;7338556;19;113368;-64
2023/09/14 07:15:51;;;;;;;;;;;16.20;99.90;;;;;;7338802;19;109069;-64
2023/09/14 07:18:27;;;;;;;;;;;16.30;99.90;;;;;;7339589;19;112446;-64
2023/09/14 07:20:55;;;;;;;;;;;16.50;99.90;;;;;;7341787;19;109360;-64
2023/09/14 07:23:23;;;;;;;;;;;16.60;99.90;;;;;;7338384;19;109718;-65
2023/09/14 07:25:50;;;;;;;;;;;16.80;99.90;;;;;;7335963;19;108855;-64
2023/09/14 07:28:18;;;;;;;;;;;17.00;99.90;;;;;;7340189;19;108674;-64
2023/09/14 07:30:46;;;;;;;;;;;17.10;99.90;;;;;;7337803;19;110749;-64
2023/09/14 07:33:13;;;;;;;;;;;17.10;99.90;;;;;;7337664;19;109836;-64
2023/09/14 07:35:41;;;;;;;;;;;17.20;99.90;;;;;;7339388;19;109334;-64
2023/09/14 07:38:09;;;;;;;;;;;17.40;99.90;;;;;;7338274;19;109212;-65
2023/09/14 07:40:37;;;;;;;;;;;17.50;99.90;;;;;;7343813;19;108347;-64
2023/09/14 07:43:04;;;;;;;;;;;17.60;99.90;;;;;;7338073;19;110073;-64
2023/09/14 07:45:33;;;;;;;;;;;17.70;99.90;;;;;;7340927;19;109053;-64
2023/09/14 07:48:01;;;;;;;;;;;17.80;99.90;;;;;;7338808;19;109765;-64
2023/09/14 07:50:29;;;;;;;;;;;18.00;99.90;;;;;;7339677;19;110263;-64
2023/09/14 07:52:56;;;;;;;;;;;18.10;99.90;;;;;;7338367;19;109251;-64
2023/09/14 07:55:23;;;;;;;;;;;18.10;99.90;;;;;;7339435;19;109763;-65
2023/09/14 07:57:50;;;;;;;;;;;18.20;99.90;;;;;;7337242;19;109279;-65
2023/09/14 08:00:17;;;;;;;;;;;18.30;99.90;;;;;;7338490;19;108456;-65
2023/09/14 08:02:44;;;;;;;;;;;18.40;99.90;;;;;;7344432;19;108762;-65
2023/09/14 08:05:12;;;;;;;;;;;18.50;99.90;;;;;;7337936;19;109786;-65
2023/09/14 08:07:39;;;;;;;;;;;18.60;99.90;;;;;;7337579;19;108922;-65
2023/09/14 08:10:07;;;;;;;;;;;18.70;99.90;;;;;;7335443;19;109174;-65
2023/09/14 08:12:36;;;;;;;;;;;18.80;99.90;;;;;;7339457;19;109487;-65
2023/09/14 08:15:03;;;;;;;;;;;18.80;99.90;;;;;;7339728;19;111838;-65
2023/09/14 08:17:31;;;;;;;;;;;18.80;99.90;;;;;;7333919;19;110342;-65
2023/09/14 08:19:59;;;;;;;;;;;18.90;99.90;;;;;;7337674;19;109437;-66
2023/09/14 08:22:26;;;;;;;;;;;19.00;99.90;;;;;;7335602;19;108685;-66
2023/09/14 08:24:54;;;;;;;;;;;19.10;99.90;;;;;;7342599;19;109985;-65
2023/09/14 08:27:22;;;;;;;;;;;19.20;99.90;;;;;;7336843;19;108215;-66
2023/09/14 08:29:49;;;;;;;;;;;19.30;99.90;;;;;;7337889;19;109589;-66
2023/09/14 08:32:16;;;;;;;;;;;19.40;99.90;;;;;;7338588;19;108687;-66
2023/09/14 08:34:43;;;;;;;;;;;19.50;99.90;;;;;;7336340;19;109364;-66
2023/09/14 08:37:10;;;;;;;;;;;19.50;99.90;;;;;;7336970;19;109111;-66
2023/09/14 08:39:38;;;;;;;;;;;19.60;99.90;;;;;;7336267;19;110189;-66
2023/09/14 08:42:05;;;;;;;;;;;19.80;99.90;;;;;;7337926;19;108626;-66
2023/09/14 08:44:35;;;;;;;;;;;19.90;99.90;;;;;;7330841;19;110199;-66
2023/09/14 08:47:03;;;;;;;;;;;20.00;99.90;;;;;;7342986;19;109554;-66
2023/09/14 08:49:32;;;;;;;;;;;20.00;99.90;;;;;;7335441;19;110044;-66
2023/09/14 08:51:59;;;;;;;;;;;20.10;99.90;;;;;;7338008;19;108408;-66
2023/09/14 08:54:26;;;;;;;;;;;20.20;99.90;;;;;;7334488;19;108797;-66
2023/09/14 08:56:54;;;;;;;;;;;20.30;99.90;;;;;;7336344;19;109209;-66
2023/09/14 08:59:22;;;;;;;;;;;20.40;99.90;;;;;;7335045;19;109412;-66
2023/09/14 09:01:50;;;;;;;;;;;20.40;99.90;;;;;;7336731;19;109651;-66
2023/09/14 09:04:17;;;;;;;;;;;20.50;99.90;;;;;;7334767;19;109155;-67
2023/09/14 09:06:45;;;;;;;;;;;20.60;99.90;;;;;;7334290;19;108929;-67
2023/09/14 09:09:14;;;;;;;;;;;20.60;99.90;;;;;;7341888;19;108725;-66
2023/09/14 09:11:42;;;;;;;;;;;20.60;99.90;;;;;;7335310;19;108553;-66
2023/09/14 09:14:09;;;;;;;;;;;20.70;99.90;;;;;;7337620;19;109587;-67
2023/09/14 09:16:38;;;;;;;;;;;20.90;99.90;;;;;;7335317;19;110356;-67
2023/09/14 09:19:06;;;;;;;;;;;21.00;99.90;;;;;;7336984;19;108886;-66
2023/09/14 09:21:36;;;;;;;;;;;21.10;99.90;;;;;;7333755;19;108306;-66
2023/09/14 09:24:04;;;;;;;;;;;21.10;99.90;;;;;;7333547;19;110158;-67
2023/09/14 09:26:34;;;;;;;;;;;21.10;99.90;;;;;;7333003;19;108539;-67
2023/09/14 09:29:12;;;;;;;;;;;21.10;99.90;;;;;;7335175;19;109010;-67
2023/09/14 09:31:43;;;;;;;;;;;21.20;99.90;;;;;;7341972;19;110244;-67
2023/09/14 09:34:13;;;;;;;;;;;21.30;99.90;;;;;;7334587;19;108796;-67
2023/09/14 09:36:41;;;;;;;;;;;21.30;99.90;;;;;;7332841;19;109287;-67
2023/09/14 09:39:11;;;;;;;;;;;21.40;99.90;;;;;;7333517;19;109785;-68
2023/09/14 09:41:39;;;;;;;;;;;21.50;99.90;;;;;;7335214;19;109041;-67
2023/09/14 09:44:07;;;;;;;;;;;21.50;99.90;;;;;;7335562;19;110263;-67
2023/09/14 09:46:35;;;;;;;;;;;21.50;99.90;;;;;;7334407;19;109574;-67
2023/09/14 09:49:03;;;;;;;;;;;21.50;99.90;;;;;;7335379;19;109122;-68
2023/09/14 09:51:33;;;;;;;;;;;21.50;99.90;;;;;;7340414;19;110120;-67
2023/09/14 09:54:04;;;;;;;;;;;21.60;99.90;;;;;;7334168;19;109325;-67
2023/09/14 09:56:36;;;;;;;;;;;21.70;99.90;;;;;;7334747;19;113147;-67
2023/09/14 09:59:05;;;;;;;;;;;21.80;99.90;;;;;;7333655;19;108929;-67
2023/09/14 10:01:33;;;;;;;;;;;22.00;99.90;;;;;;7337513;19;108657;-67
2023/09/14 10:04:01;;;;;;;;;;;22.10;99.90;;;;;;7332220;19;110347;-67
2023/09/14 10:06:28;;;;;;;;;;;22.10;99.90;;;;;;7333199;19;109146;-68
2023/09/14 10:08:57;;;;;;;;;;;22.10;99.90;;;;;;7333540;19;108737;-67
2023/09/14 10:11:26;;;;;;;;;;;22.00;99.90;;;;;;7334565;19;109090;-68
2023/09/14 10:13:54;;;;;;;;;;;22.00;99.90;;;;;;7340203;19;108515;-69
2023/09/14 10:16:23;;;;;;;;;;;22.00;99.90;;;;;;7334299;19;110041;-67
2023/09/14 10:18:53;;;;;;;;;;;21.90;99.90;;;;;;7335259;19;110906;-67
2023/09/14 10:21:22;;;;;;;;;;;22.00;99.90;;;;;;7333710;19;108769;-67
2023/09/14 10:23:49;;;;;;;;;;;22.20;99.90;;;;;;7333079;19;109285;-67
2023/09/14 10:26:17;;;;;;;;;;;22.30;99.90;;;;;;7331226;19;108986;-68
2023/09/14 10:28:44;;;;;;;;;;;22.30;99.90;;;;;;7332445;19;108662;-67
2023/09/14 10:31:13;;;;;;;;;;;22.20;99.90;;;;;;7333110;19;113116;-67
2023/09/14 10:33:43;;;;;;;;;;;22.20;99.90;;;;;;7336744;19;109009;-66
2023/09/14 10:36:11;;;;;;;;;;;22.10;99.90;;;;;;7345374;19;108565;-66
2023/09/14 10:38:42;;;;;;;;;;;22.00;99.90;;;;;;7337626;19;108386;-67
2023/09/14 10:41:11;;;;;;;;;;;22.10;99.90;;;;;;7339617;19;108882;-66
2023/09/14 10:43:39;;;;;;;;;;;22.20;99.90;;;;;;7338969;19;110074;-66
2023/09/14 10:46:10;;;;;;;;;;;22.20;99.90;;;;;;7341374;19;112075;-66
2023/09/14 10:48:38;;;;;;;;;;;22.10;99.90;;;;;;7341014;19;108924;-66
2023/09/14 10:51:08;;;;;;;;;;;22.10;99.90;;;;;;7340275;19;109960;-66
2023/09/14 10:53:35;;;;;;;;;;;21.90;99.90;;;;;;7337725;19;109629;-67
2023/09/14 10:56:03;;;;;;;;;;;22.00;99.90;;;;;;7341567;19;108802;-66
2023/09/14 10:58:40;;;;;;;;;;;22.20;99.90;;;;;;7345514;19;111983;-66
2023/09/14 11:01:11;;;;;;;;;;;22.20;99.90;;;;;;7340221;19;110203;-65
2023/09/14 11:04:06;;;;;;;;;;;22.10;99.90;;;;;;7339753;19;110175;-65
2023/09/14 11:06:40;;;;;;;;;;;22.00;99.90;;;;;;7340783;19;110940;-65
2023/09/14 11:09:09;;;;;;;;;;;22.00;99.90;;;;;;7340387;19;109247;-65
2023/09/14 11:11:39;;;;;;;;;;;22.00;99.90;;;;;;7336904;19;110195;-65
2023/09/14 11:14:09;;;;;;;;;;;22.20;99.90;;;;;;7339893;19;108868;-66
2023/09/14 11:16:57;;;;;;;;;;;22.30;99.90;;;;;;7341349;19;108938;-65
2023/09/14 11:19:45;;;;;;;;;;;22.40;99.90;;;;;;7338248;19;111066;-65
2023/09/14 11:22:24;;;;;;;;;;;22.70;99.90;;;;;;7342814;19;108869;-65
2023/09/14 11:24:54;;;;;;;;;;;23.00;99.90;;;;;;7339651;19;110783;-65
2023/09/14 11:27:23;;;;;;;;;;;23.30;99.90;;;;;;7335949;19;109964;-65
2023/09/14 11:29:52;;;;;;;;;;;23.50;99.90;;;;;;7339776;19;108666;-66
2023/09/14 11:32:26;;;;;;;;;;;23.50;99.90;;;;;;7338999;19;110867;-65
2023/09/14 11:34:57;;;;;;;;;;;23.70;99.90;;;;;;7337011;19;110724;-65
2023/09/14 11:37:31;;;;;;;;;;;23.80;99.90;;;;;;7337721;19;108811;-65
2023/09/14 11:40:15;;;;;;;;;;;23.90;99.90;;;;;;7337926;19;109307;-66
2023/09/14 11:43:28;;;;;;;;;;;24.00;99.90;;;;;;7336850;19;108693;-65
2023/09/14 11:45:59;;;;;;;;;;;24.00;99.90;;;;;;7337250;19;108712;-65
2023/09/14 11:48:35;;;;;;;;;;;23.90;99.90;;;;;;7337893;19;110588;-66
2023/09/14 11:51:06;;;;;;;;;;;23.70;99.90;;;;;;7336369;19;108678;-66
2023/09/14 11:53:35;;;;;;;;;;;23.60;99.90;;;;;;7336817;19;109388;-66
2023/09/14 11:56:03;;;;;;;;;;;23.60;99.90;;;;;;7338356;19;108877;-66
2023/09/14 11:58:37;;;;;;;;;;;23.40;99.90;;;;;;7337530;19;109880;-66
2023/09/14 12:01:04;;;;;;;;;;;23.20;99.90;;;;;;7337019;19;109091;-65
2023/09/14 12:03:31;;;;;;;;;;;23.20;99.90;;;;;;7337402;19;108582;-66
2023/09/14 12:05:58;;;;;;;;;;;23.20;99.90;;;;;;7344403;19;108998;-66
2023/09/14 12:08:27;;;;;;;;;;;23.20;99.90;;;;;;7337745;19;108930;-66
2023/09/14 12:10:55;;;;;;;;;;;23.20;99.90;;;;;;7335323;19;109428;-66
2023/09/14 12:13:23;;;;;;;;;;;23.20;99.90;;;;;;7338138;19;109734;-66
2023/09/14 12:16:00;;;;;;;;;;;23.20;99.90;;;;;;7339597;19;108902;-65
2023/09/14 12:18:43;;;;;;;;;;;23.10;99.90;;;;;;7340015;19;110208;-65
2023/09/14 12:21:11;;;;;;;;;;;23.10;99.90;;;;;;7339565;19;110255;-66
2023/09/14 12:23:39;;;;;;;;;;;23.10;99.90;;;;;;7338573;19;109679;-66
2023/09/14 12:26:06;;;;;;;;;;;23.10;99.90;;;;;;7337110;19;109459;-65
2023/09/14 12:28:34;;;;;;;;;;;23.00;99.90;;;;;;7344018;19;109301;-65
2023/09/14 12:31:02;;;;;;;;;;;22.90;99.90;;;;;;7337077;19;112182;-65
2023/09/14 12:33:30;;;;;;;;;;;23.10;99.90;;;;;;7335100;19;112318;-66
2023/09/14 12:35:58;;;;;;;;;;;23.20;99.90;;;;;;7336409;19;109016;-66
2023/09/14 12:38:29;;;;;;;;;;;23.30;99.90;;;;;;7337738;19;109649;-66
2023/09/14 12:41:14;;;;;;;;;;;23.50;99.90;;;;;;7335562;19;110386;-67
2023/09/14 12:43:42;;;;;;;;;;;23.50;99.90;;;;;;7336346;19;109908;-65
2023/09/14 12:46:10;;;;;;;;;;;23.50;99.90;;;;;;7336809;19;108766;-66
2023/09/14 12:48:40;;;;;;;;;;;23.50;99.90;;;;;;7336916;19;109301;-66
2023/09/14 12:51:07;;;;;;;;;;;23.50;99.90;;;;;;7340569;19;109267;-65
2023/09/14 12:53:40;;;;;;;;;;;23.50;99.90;;;;;;7336530;19;110058;-66
2023/09/14 12:56:09;;;;;;;;;;;23.60;99.90;;;;;;7332879;19;110635;-66
2023/09/14 12:58:38;;;;;;;;;;;23.80;99.90;;;;;;7336452;19;111277;-67
2023/09/14 13:01:08;;;;;;;;;;;24.10;99.90;;;;;;7339133;19;108684;-66
2023/09/14 13:03:35;;;;;;;;;;;24.10;99.90;;;;;;7333408;19;112908;-66
2023/09/14 13:06:03;;;;;;;;;;;24.10;99.90;;;;;;7337599;19;109322;-66
2023/09/14 13:08:46;;;;;;;;;;;24.00;99.90;;;;;;7334149;19;109776;-65
2023/09/14 13:11:25;;;;;;;;;;;24.00;99.90;;;;;;7338342;19;109364;-65
2023/09/14 13:13:58;;;;;;;;;;;24.00;99.90;;;;;;7341997;19;109133;-71
2023/09/14 13:16:27;;;;;;;;;;;24.10;99.90;;;;;;7335955;19;108337;-72
2023/09/14 13:18:58;;;;;;;;;;;24.30;99.90;;;;;;7335864;19;109129;-71
2023/09/14 13:21:25;;;;;;;;;;;24.30;99.90;;;;;;7335349;19;110540;-73
2023/09/14 13:23:53;;;;;;;;;;;24.30;99.90;;;;;;7335757;19;108656;-71
2023/09/14 13:26:20;;;;;;;;;;;24.30;99.90;;;;;;7334893;19;108896;-69
2023/09/14 13:28:47;;;;;;;;;;;24.20;99.90;;;;;;7335698;19;109110;-74
2023/09/14 13:31:16;;;;;;;;;;;24.20;99.90;;;;;;7335761;19;108587;-70
2023/09/14 13:33:44;;;;;;;;;;;24.20;99.90;;;;;;7334871;19;108687;-71
2023/09/14 13:36:11;;;;;;;;;;;24.10;99.90;;;;;;7340536;19;110260;-73
2023/09/14 13:38:38;;;;;;;;;;;24.00;99.90;;;;;;7334614;19;109344;-74
2023/09/14 13:41:05;;;;;;;;;;;23.90;99.90;;;;;;7333207;19;109096;-70
2023/09/14 13:43:32;;;;;;;;;;;23.80;99.90;;;;;;7334229;19;108880;-71
2023/09/14 13:45:59;;;;;;;;;;;23.70;99.90;;;;;;7331558;19;108838;-71
2023/09/14 13:48:27;;;;;;;;;;;23.60;99.90;;;;;;7335525;19;109454;-73
2023/09/14 13:51:11;;;;;;;;;;;23.50;99.90;;;;;;7331607;19;108975;-73
2023/09/14 13:53:39;;;;;;;;;;;23.50;99.90;;;;;;7335291;19;109049;-75
2023/09/14 13:56:06;;;;;;;;;;;23.40;99.90;;;;;;7334132;19;110558;-73
2023/09/14 13:58:34;;;;;;;;;;;23.30;99.90;;;;;;7335703;19;109154;-70
2023/09/14 14:01:01;;;;;;;;;;;23.20;99.90;;;;;;7333443;19;110305;-73
2023/09/14 14:03:29;;;;;;;;;;;23.20;99.90;;;;;;7331897;19;108794;-69
2023/09/14 14:05:56;;;;;;;;;;;23.10;99.90;;;;;;7335926;19;108366;-68
2023/09/14 14:08:25;;;;;;;;;;;23.10;99.90;;;;;;7338076;19;108934;-70
2023/09/14 14:10:53;;;;;;;;;;;23.10;99.90;;;;;;7342331;19;109618;-69
2023/09/14 14:13:20;;;;;;;;;;;23.10;99.90;;;;;;7340355;19;109156;-69